Weather History for Glendive, MT

Change the Weather History Date:

Thursday, January 3, 2013

  Actual Average Record
Temperature  
Mean Temperature 11 °F -  
Max Temperature 21 °F 23 °F 51 °F (2012)
Min Temperature 1 °F 6 °F -16 °F (1998)
Degree Days  
Heating Degree Days 54    
Moisture  
Dew Point 6 °F    
Average Humidity 77    
Maximum Humidity 100    
Minimum Humidity 62    
Precipitation  
Precipitation 0.00 in - - ()
Sea Level Pressure  
Sea Level Pressure 30.12 in    
Wind  
Wind Speed 9 mph (SSW)    
Max Wind Speed 20 mph    
Max Gust Speed -    
Visibility 10 miles    
Events      
Averages and records for this station are not official NWS values.
T = Trace of Precipitation, MM = Missing Value Source: NWS Daily Summary

Daily Weather History Graph

Daily Weather History Graph

Search for Another Location

Airport:

Trip Planner

Search our weather history database for the weather conditions in past years. The results will help you decide how hot, cold, wet, or windy it might be!

Date:

Astronomy

Jan. 03, 2013 Rise Set
Actual Time 7:45 AM MST 4:22 PM MST
Civil Twilight 7:10 AM MST 4:57 PM MST
Nautical Twilight 6:31 AM MST 5:36 PM MST
Astronomical Twilight 5:54 AM MST 6:13 PM MST
Moon 11:29 PM MST (1/3) 10:31 AM MST (1/3)
Length of Visible Light 9h 47m
Length of Day
8h 37m
Waning Gibbous, 65% of the Moon is Illuminated
Jan 3
Waning Gibbous
Jan 4
Last Quarter
Jan 11
New
Jan 18
First Quarter
Jan 26
Full

Hourly Weather History & Observations

Time (MST) Temp. Windchill Dew Point Humidity Pressure Visibility Wind Dir Wind Speed Gust Speed Precip Events Conditions
12:15 AM 17.6 °F 9.3 °F 12.2 °F 79% 30.24 in 10.0 mi WSW 5.8 mph - N/A   Mostly Cloudy
12:35 AM 14.0 °F 3.9 °F 8.6 °F 79% 30.24 in 10.0 mi WSW 6.9 mph - N/A   Mostly Cloudy
12:55 AM 12.2 °F -0.2 °F 8.6 °F 85% 30.24 in 10.0 mi WSW 9.2 mph - N/A   Scattered Clouds
1:15 AM 10.4 °F -2.4 °F 6.8 °F 85% 30.25 in 10.0 mi West 9.2 mph - N/A   Clear
1:35 AM 8.6 °F -4.7 °F 3.2 °F 79% 30.24 in 10.0 mi WSW 9.2 mph - N/A   Clear
1:55 AM 8.6 °F -4.7 °F 1.4 °F 73% 30.24 in 10.0 mi West 9.2 mph - N/A   Clear
2:15 AM 6.8 °F -5.9 °F 3.2 °F 85% 30.24 in 10.0 mi West 8.1 mph - N/A   Clear
2:35 AM 6.8 °F -4.8 °F 3.2 °F 85% 30.23 in 10.0 mi WSW 6.9 mph - N/A   Clear
2:55 AM 6.8 °F -2.0 °F 6.8 °F 100% 30.23 in 10.0 mi South 4.6 mph - N/A   Clear
3:15 AM 6.8 °F -2.0 °F 1.4 °F 79% 30.23 in 10.0 mi South 4.6 mph - N/A   Clear
3:55 AM 5.0 °F -6.9 °F 1.4 °F 85% 30.21 in 10.0 mi South 6.9 mph - N/A   Clear
4:15 AM 3.2 °F -6.2 °F -0.4 °F 85% 30.21 in 10.0 mi SSW 4.6 mph - N/A   Clear
4:35 AM 3.2 °F -9.1 °F 1.4 °F 92% 30.20 in 10.0 mi South 6.9 mph - N/A   Clear
4:55 AM 3.2 °F -10.3 °F 1.4 °F 92% 30.19 in 10.0 mi South 8.1 mph - N/A   Clear
5:15 AM 3.2 °F -10.3 °F -2.2 °F 78% 30.18 in 10.0 mi South 8.1 mph - N/A   Clear
5:55 AM 3.2 °F -9.1 °F 1.4 °F 92% 30.17 in 10.0 mi South 6.9 mph - N/A   Clear
6:35 AM 3.2 °F -10.3 °F -0.4 °F 85% 30.16 in 10.0 mi South 8.1 mph - N/A   Clear
7:15 AM 3.2 °F -12.2 °F -0.4 °F 85% 30.15 in 10.0 mi South 10.4 mph - N/A   Clear
7:35 AM 1.4 °F -13.5 °F -2.2 °F 85% 30.15 in 10.0 mi South 9.2 mph - N/A   Clear
7:55 AM 3.2 °F -11.3 °F 1.4 °F 92% 30.15 in 10.0 mi South 9.2 mph - N/A   Clear
8:15 AM 3.2 °F -12.2 °F -0.4 °F 85% 30.15 in 10.0 mi South 10.4 mph - N/A   Clear
8:35 AM 6.8 °F -7.8 °F 3.2 °F 85% 30.15 in 10.0 mi South 10.4 mph - N/A   Clear
8:55 AM 5.0 °F -9.1 °F -0.4 °F 78% 30.15 in 10.0 mi South 9.2 mph - N/A   Clear
9:15 AM 6.8 °F -8.6 °F 3.2 °F 85% 30.15 in 10.0 mi South 11.5 mph - N/A   Clear
9:35 AM 6.8 °F -7.8 °F 3.2 °F 85% 30.14 in 10.0 mi South 10.4 mph - N/A   Clear
9:55 AM 8.6 °F -7.7 °F 6.8 °F 92% 30.13 in 10.0 mi South 13.8 mph - N/A   Clear
10:15 AM 10.4 °F -5.4 °F 6.8 °F 85% 30.13 in 10.0 mi South 13.8 mph - N/A   Clear
10:35 AM 12.2 °F -2.5 °F 6.8 °F 79% 30.13 in 10.0 mi SSW 12.7 mph - N/A   Clear
10:55 AM 14.0 °F -2.5 °F 8.6 °F 79% 30.11 in 10.0 mi SSW 17.3 mph - N/A   Clear
11:55 AM 17.6 °F 1.3 °F 8.6 °F 68% 30.09 in 10.0 mi SSW 19.6 mph - N/A   Clear
12:15 PM 17.6 °F 2.2 °F 10.4 °F 73% 30.08 in 10.0 mi SSW 17.3 mph - N/A   Clear
12:35 PM 19.4 °F 5.0 °F 10.4 °F 68% 30.07 in 10.0 mi SSW 16.1 mph - N/A   Clear
12:55 PM 19.4 °F 3.6 °F 10.4 °F 68% 30.05 in 10.0 mi SSW 19.6 mph - N/A   Clear
1:15 PM 19.4 °F 5.5 °F 10.4 °F 68% 30.05 in 10.0 mi SSW 15.0 mph - N/A   Clear
1:35 PM 21.2 °F 9.5 °F 12.2 °F 68% 30.05 in 10.0 mi SSW 11.5 mph - N/A   Clear
1:55 PM 21.2 °F 7.3 °F 12.2 °F 68% 30.05 in 10.0 mi South 16.1 mph - N/A   Clear
2:35 PM 21.2 °F 8.9 °F 12.2 °F 68% 30.05 in 10.0 mi South 12.7 mph - N/A   Clear
2:55 PM 21.2 °F 8.3 °F 12.2 °F 68% 30.05 in 10.0 mi South 13.8 mph - N/A   Clear
3:15 PM 21.2 °F 7.3 °F 12.2 °F 68% 30.04 in 10.0 mi South 16.1 mph - N/A   Clear
3:35 PM 21.2 °F 8.9 °F 10.4 °F 63% 30.05 in 10.0 mi South 12.7 mph - N/A   Clear
3:55 PM 19.4 °F 6.6 °F 10.4 °F 68% 30.05 in 10.0 mi South 12.7 mph - N/A   Clear
4:15 PM 19.4 °F 9.5 °F 10.4 °F 68% 30.06 in 10.0 mi South 8.1 mph - N/A   Clear
4:35 PM 17.6 °F 3.7 °F 8.6 °F 68% 30.05 in 10.0 mi South 13.8 mph - N/A   Clear
4:55 PM 15.8 °F 5.1 °F 8.6 °F 73% 30.05 in 10.0 mi SSW 8.1 mph - N/A   Clear
5:15 PM 17.6 °F 8.2 °F 10.4 °F 73% 30.05 in 10.0 mi South 6.9 mph - N/A   Clear
5:55 PM 17.6 °F 5.7 °F 8.6 °F 68% 30.06 in 10.0 mi SSW 10.4 mph - N/A   Clear
6:15 PM 17.6 °F 5.0 °F 8.6 °F 68% 30.06 in 10.0 mi SSW 11.5 mph - N/A   Clear
6:35 PM 17.6 °F 5.0 °F 8.6 °F 68% 30.06 in 10.0 mi SSW 11.5 mph - N/A   Clear
6:55 PM 17.6 °F 4.3 °F 10.4 °F 73% 30.06 in 10.0 mi SSW 12.7 mph - N/A   Clear
7:15 PM 17.6 °F 6.4 °F 6.8 °F 63% 30.06 in 10.0 mi SW 9.2 mph - N/A   Clear
7:35 PM 14.0 °F 0.5 °F 5.0 °F 67% 30.06 in 10.0 mi SW 11.5 mph - N/A   Clear
7:55 PM 15.8 °F 2.7 °F 8.6 °F 73% 30.06 in 10.0 mi SSW 11.5 mph - N/A   Clear
8:15 PM 15.8 °F 6.1 °F 10.4 °F 79% 30.06 in 10.0 mi SSW 6.9 mph - N/A   Clear
8:35 PM 14.0 °F 2.0 °F 5.0 °F 67% 30.05 in 10.0 mi SW 9.2 mph - N/A   Clear
8:55 PM 15.8 °F 6.1 °F 6.8 °F 68% 30.05 in 10.0 mi SW 6.9 mph - N/A   Clear
9:15 PM 12.2 °F 2.9 °F 1.4 °F 62% 30.06 in 10.0 mi SSW 5.8 mph - N/A   Clear
9:55 PM 14.0 °F 5.1 °F 8.6 °F 79% 30.06 in 10.0 mi SSE 5.8 mph - N/A   Clear
10:15 PM 12.2 °F 2.9 °F 8.6 °F 85% 30.06 in 10.0 mi South 5.8 mph - N/A   Clear
10:35 PM 14.0 °F 2.9 °F 6.8 °F 73% 30.06 in 10.0 mi South 8.1 mph - N/A   Clear
10:55 PM 12.2 °F 1.7 °F 8.6 °F 85% 30.06 in 10.0 mi South 6.9 mph - N/A   Clear
11:15 PM 12.2 °F 2.9 °F 5.0 °F 73% 30.06 in 10.0 mi SSW 5.8 mph - N/A   Clear
11:35 PM 10.4 °F 0.8 °F 3.2 °F 73% 30.06 in 10.0 mi SW 5.8 mph - N/A   Clear
11:55 PM 12.2 °F 4.3 °F 5.0 °F 73% 30.06 in 10.0 mi SSW 4.6 mph - N/A   Clear